Latest Weather Observations for Macquarie Island

IDT60801

Issued at 10:31 pm EST Thursday 2 July 2015 (issued every 30 minutes, with the page automatically refreshed every 10 minutes)

About weather observations | Map of weather stations | Latest weather observations for TAS | Other Formats
Station Details ID: 300004 Name: MACQUARIE ISLAND Lat: -54.50 Lon: 158.94 Height: 6.0 m
Data from the previous 72 hours. | See also: Recent months at Macquarie Island
Date/Time
EST
Temp
°C
App
Temp
°C
Dew
Point
Rel
Hum
%
Delta-T
°C
Wind Press
QNH
hPa
Press
MSL
hPa
Rain
since 9 am
mm
Dir
 
Spd
km/h
Gust
km/h
Spd
kts
Gust
kts
02/10:30pm 0.9 -12.1 -1.3 85 0.8 W 57 87 31 47 976.5 - 1.8
02/10:03pm 0.8 -13.0 -1.3 86 0.7 W 61 80 33 43 976.1 - 1.8
02/10:00pm 1.0 -12.4 -1.2 85 0.8 W 59 76 32 41 975.9 - 1.8
02/09:30pm 0.9 -12.8 -1.0 87 0.7 W 61 80 33 43 975.3 - 1.6
02/09:28pm 1.0 -12.7 -0.6 89 0.6 W 61 80 33 43 975.4 - 1.4
02/09:00pm 0.9 -13.2 -0.9 88 0.7 W 63 78 34 42 974.9 975.2 1.2
02/08:33pm 1.4 -12.3 -0.8 85 0.8 W 61 80 33 43 974.5 - 1.2
02/08:30pm 1.3 -12.8 -0.9 85 0.8 W 63 80 34 43 974.4 - 1.2
02/08:04pm 1.2 -11.5 -0.7 87 0.7 W 56 74 30 40 974.1 - 1.2
02/08:00pm 1.0 -12.4 -1.2 85 0.8 W 59 74 32 40 974.1 - 1.0
02/07:31pm 0.7 -12.4 -2.2 81 1.0 W 57 76 31 41 973.7 - 1.0
02/07:30pm 0.7 -12.8 -2.2 81 1.0 W 59 76 32 41 973.7 - 1.0
02/07:08pm 0.9 -12.0 -2.3 79 1.1 W 56 74 30 40 973.4 - 1.0
02/07:00pm 0.9 -12.0 -1.7 83 0.9 W 56 70 30 38 973.4 - 1.0
02/06:30pm 0.5 -13.0 -2.5 80 1.0 W 59 78 32 42 973.0 - 1.0
02/06:00pm 0.3 -11.9 -2.6 81 1.0 W 52 74 28 40 972.6 972.9 1.0
02/05:31pm 1.6 -9.7 -1.5 80 1.1 W 48 67 26 36 972.1 - 1.0
02/05:30pm 1.6 -9.7 -1.1 82 1.0 W 48 61 26 33 972.1 - 1.0
02/05:00pm 1.5 -9.7 -0.6 86 0.8 W 48 76 26 41 971.5 - 1.0
02/04:58pm 1.6 -9.1 0.0 89 0.6 W 46 69 25 37 971.4 - 1.0
02/04:30pm 2.0 -9.5 -0.4 84 0.9 W 50 63 27 34 971.1 - 0.6
02/04:12pm 2.4 -9.1 0.1 85 0.8 W 50 70 27 38 970.5 - 0.6
02/04:00pm 1.9 -9.7 -0.5 84 0.9 W 50 63 27 34 970.4 - 0.6
02/03:44pm 2.1 -9.5 -0.6 82 1.0 W 50 69 27 37 970.4 - 0.6
02/03:30pm 2.5 -9.5 -1.3 76 1.4 W 52 65 28 35 970.1 - 0.6
02/03:01pm 2.4 -9.5 -0.2 83 1.0 W 52 70 28 38 969.6 - 0.6
02/03:00pm 2.3 -10.0 -0.4 82 1.0 W 54 70 29 38 969.6 969.9 0.6
02/02:30pm 2.4 -8.7 0.1 85 0.8 W 48 76 26 41 968.8 - 0.6
02/02:00pm 2.6 -6.7 0.8 88 0.7 W 39 65 21 35 968.2 - 0.4
02/01:39pm 3.3 -6.6 1.7 89 0.6 W 43 61 23 33 967.6 - 0.2
02/01:30pm 3.4 -6.5 1.6 88 0.7 W 43 57 23 31 967.5 - 0.2
02/01:00pm 3.9 -3.8 2.3 89 0.6 W 32 41 17 22 967.3 - 0.2
02/12:30pm 4.0 -3.7 2.4 89 0.6 W 32 39 17 21 967.3 - 0.2
02/12:00pm 4.1 -3.6 2.5 89 0.7 NW 32 41 17 22 967.3 967.6 0.2
02/11:55am 4.0 -4.3 2.2 88 0.7 NW 35 41 19 22 967.4 - 0.2
02/11:30am 4.4 -4.2 2.4 87 0.8 NNW 37 43 20 23 967.6 - 0.0
02/11:00am 4.5 -4.1 2.5 87 0.8 NNW 37 43 20 23 968.2 - 0.0
02/10:30am 4.7 -4.3 2.7 87 0.8 NNW 39 46 21 25 968.8 - 0.0
02/10:00am 4.7 -4.6 2.7 87 0.8 NNW 41 46 22 25 969.3 - 0.0
02/09:30am 4.4 -5.4 2.3 86 0.8 NNW 43 50 23 27 969.4 - 0.0
02/09:00am 4.4 -5.6 2.3 86 0.9 NNW 44 52 24 28 969.8 970.1 6.0
02/08:30am 4.8 -4.5 2.7 86 0.9 NNW 41 46 22 25 970.4 - 6.0
02/08:00am 4.8 -4.5 2.7 86 0.9 NNW 41 46 22 25 970.7 - 6.0
02/07:30am 4.8 -4.5 3.0 88 0.7 NNW 41 46 22 25 970.7 - 6.0
02/07:00am 4.9 -4.0 3.2 89 0.7 NNW 39 46 21 25 971.2 - 6.0
02/06:30am 4.9 -4.4 3.2 89 0.7 NNW 41 46 22 25 971.6 - 6.0
02/06:00am 4.9 -4.7 3.2 89 0.7 NNW 43 50 23 27 971.9 972.2 6.0
02/05:30am 5.0 -3.9 3.2 88 0.7 NW 39 50 21 27 972.3 - 6.0
02/05:00am 5.0 -4.7 3.0 87 0.8 NW 43 50 23 27 972.5 - 6.0
02/04:30am 5.0 -4.3 3.0 87 0.8 NW 41 52 22 28 972.6 - 6.0
02/04:00am 5.1 -5.1 3.3 88 0.7 NNW 46 59 25 32 972.6 - 6.0
02/03:30am 5.4 -5.1 3.9 90 0.6 NNW 48 56 26 30 972.7 - 6.0
02/03:00am 5.5 -4.9 4.0 90 0.6 NNW 48 56 26 30 972.8 973.1 6.0
02/02:30am 5.4 -5.8 3.9 90 0.6 NNW 52 61 28 33 973.5 - 6.0
02/02:00am 5.5 -5.7 4.0 90 0.6 NNW 52 61 28 33 973.9 - 6.0
02/01:30am 5.5 -5.7 4.2 91 0.6 NNW 52 61 28 33 974.3 - 6.0
02/01:00am 5.6 -6.3 4.1 90 0.6 NW 56 69 30 37 974.2 - 6.0
02/12:34am 6.3 -7.1 5.3 93 0.4 NNW 65 87 35 47 973.8 - 5.8
02/12:30am 6.2 -7.2 5.2 93 0.4 NNW 65 76 35 41 973.9 - 5.8
02/12:00am 6.4 -7.1 5.0 91 0.6 N 65 80 35 43 974.4 974.7 5.8
 
Date/Time
EST
Temp
°C
App
Temp
°C
Dew
Point
Rel
Hum
%
Delta-T
°C
Wind Press
QNH
hPa
Press
MSL
hPa
Rain
since 9 am
mm
Dir
 
Spd
km/h
Gust
km/h
Spd
kts
Gust
kts
01/11:30pm 6.4 -6.7 5.0 91 0.6 N 63 76 34 41 975.4 - 5.8
01/11:00pm 6.6 -6.1 5.2 91 0.6 NNW 61 78 33 42 976.3 - 5.8
01/10:30pm 6.4 -7.1 5.0 91 0.6 NNW 65 76 35 41 976.9 - 5.8
01/10:00pm 6.2 -6.1 5.2 93 0.4 NNW 59 69 32 37 977.8 - 5.8
01/09:30pm 6.2 -6.1 5.3 94 0.4 NNW 59 72 32 39 978.4 - 5.4
01/09:00pm 6.2 -6.8 5.3 94 0.4 NNW 63 72 34 39 979.1 979.4 5.2
01/08:30pm 6.4 -6.6 5.5 94 0.4 NNW 63 76 34 41 979.5 - 5.2
01/08:00pm 6.1 -6.5 5.4 95 0.3 NNW 61 72 33 39 980.2 - 4.8
01/07:30pm 6.2 -6.8 5.5 95 0.3 NNW 63 72 34 39 980.8 - 4.2
01/07:00pm 6.0 -6.3 5.3 95 0.3 NNW 59 70 32 38 981.5 - 3.6
01/06:30pm 6.1 -5.8 5.4 95 0.3 NNW 57 69 31 37 982.0 - 2.0
01/06:09pm - - - - - - - - - - - - -
01/06:00pm 6.1 -5.8 5.4 95 0.3 NNW 57 63 31 34 982.6 982.7 1.6
01/05:30pm 5.9 -5.4 5.3 96 0.3 NNW 54 61 29 33 983.2 - 1.4
01/05:00pm 5.9 -5.4 5.3 96 0.3 N 54 63 29 34 983.7 - 0.8
01/04:30pm 6.0 -5.7 5.3 95 0.3 N 56 67 30 36 984.5 - 0.8
01/04:00pm 5.4 -4.5 4.7 95 0.3 N 46 56 25 30 985.7 - 0.6
01/03:30pm 5.2 -4.8 4.5 95 0.3 N 46 57 25 31 986.8 - 0.6
01/03:00pm 4.8 -5.6 4.1 95 0.3 N 48 63 26 34 987.9 988.2 0.2
01/02:30pm 4.6 -5.9 3.7 94 0.4 N 48 61 26 33 989.0 - 0.0
01/02:00pm 4.4 -6.1 3.4 93 0.4 N 48 61 26 33 990.3 - 0.0
01/01:47pm 4.4 -6.5 3.4 93 0.4 N 50 69 27 37 990.8 - 0.0
01/01:30pm 4.4 -7.0 3.1 91 0.5 N 52 65 28 35 991.3 - 0.0
01/01:00pm 4.2 -6.5 2.7 90 0.6 N 48 61 26 33 992.5 - 0.0
01/12:30pm 4.2 -6.2 2.2 87 0.8 N 46 57 25 31 993.7 - 0.0
01/12:00pm 4.0 -6.0 2.0 87 0.8 N 44 56 24 30 995.0 995.3 0.0
01/11:30am 4.3 -5.0 0.6 77 1.4 N 39 48 21 26 995.9 - 0.0
01/11:00am 4.1 -4.9 -0.1 74 1.6 N 37 46 20 25 997.0 - 0.0
01/10:30am 4.0 -5.7 0.5 78 1.3 N 41 46 22 25 997.9 - 0.0
01/10:00am 4.1 -5.5 1.1 81 1.2 NNW 41 46 22 25 998.8 - 0.0
01/09:30am 3.9 -4.6 0.6 79 1.3 NNW 35 39 19 21 999.4 - 0.0
01/09:00am 3.5 -5.0 1.1 84 0.9 NNW 35 39 19 21 999.9 1000.2 1.4
01/08:30am 2.9 -6.0 0.5 84 0.9 NNW 37 46 20 25 1000.7 - 1.4
01/08:00am 3.2 -5.1 -0.1 79 1.2 NNW 33 39 18 21 1001.0 - 1.4
01/07:30am 3.1 -5.0 -0.4 78 1.3 NW 32 44 17 24 1001.6 - 1.4
01/07:00am 3.0 -5.1 -0.3 79 1.2 NNW 32 35 17 19 1001.9 - 1.2
01/06:30am 3.1 -5.1 0.3 82 1.0 NW 33 43 18 23 1002.1 - 1.2
01/06:00am 2.8 -5.6 -2.1 70 1.7 WNW 32 35 17 19 1002.3 1002.6 1.2
01/05:30am 2.9 -5.4 -2.0 70 1.7 NW 32 37 17 20 1002.2 - 1.2
01/05:00am 2.8 -5.6 -2.1 70 1.7 WNW 32 35 17 19 1002.3 - 1.2
01/04:30am 2.9 -5.6 -1.6 72 1.6 WNW 33 39 18 21 1002.5 - 1.2
01/04:00am 2.7 -5.8 -1.8 72 1.6 W 33 43 18 23 1002.7 - 1.2
01/03:30am 2.8 -6.1 -1.7 72 1.6 W 35 48 19 26 1002.7 - 1.2
01/03:00am 2.5 -7.6 -2.4 70 1.7 W 41 48 22 26 1002.8 1003.1 1.2
01/02:30am 2.7 -6.9 -1.6 73 1.5 WNW 39 50 21 27 1002.6 - 1.2
01/02:00am 2.4 -6.8 -1.6 75 1.4 W 37 46 20 25 1002.7 - 1.2
01/01:30am 1.9 -7.3 -1.5 78 1.2 W 37 48 20 26 1002.8 - 1.2
01/01:05am 1.0 -9.4 -1.9 81 1.0 W 43 61 23 33 1002.7 - 1.2
01/01:00am 1.1 -10.2 -1.5 83 0.9 W 48 61 26 33 1002.8 - 1.2
01/12:53am 2.1 -7.0 -0.6 82 1.0 WNW 37 56 20 30 1002.6 - 1.2
01/12:30am 2.3 -7.3 -1.5 76 1.3 W 39 54 21 29 1002.4 - 1.2
01/12:00am 2.4 -7.1 -4.1 62 2.2 W 37 44 20 24 1002.5 1002.8 1.2
 
Date/Time
EST
Temp
°C
App
Temp
°C
Dew
Point
Rel
Hum
%
Delta-T
°C
Wind Press
QNH
hPa
Press
MSL
hPa
Rain
since 9 am
mm
Dir
 
Spd
km/h
Gust
km/h
Spd
kts
Gust
kts
30/11:32pm 2.0 -7.5 -3.5 67 1.8 W 37 56 20 30 1002.3 - 1.2
30/11:30pm 2.0 -8.3 -3.7 66 1.9 W 41 56 22 30 1002.5 - 1.2
30/11:01pm 2.0 -8.7 -4.1 64 2.1 W 43 61 23 33 1002.4 - 1.2
30/11:00pm 2.0 -8.9 -4.5 62 2.2 W 44 61 24 33 1002.4 - 1.2
30/10:47pm 2.1 -9.7 -5.3 58 2.5 W 48 67 26 36 1002.1 - 1.2
30/10:30pm 1.9 -9.7 -4.2 64 2.1 W 48 61 26 33 1002.0 - 1.2
30/10:00pm 1.6 -8.0 -4.7 63 2.1 W 37 65 20 35 1001.4 - 1.2
30/09:58pm 1.5 -8.1 -4.6 64 2.1 W 37 65 20 35 1001.6 - 1.2
30/09:56pm 1.4 -8.6 -4.6 64 2.0 W 39 54 21 29 1001.3 - 1.2
30/09:54pm 1.5 -7.2 -5.2 61 2.2 WSW 32 50 17 27 1001.5 - 1.2
30/09:30pm 1.2 -10.4 -3.8 69 1.7 W 48 69 26 37 1000.8 - 1.2
30/09:12pm 0.7 -6.8 -1.7 84 0.9 W 28 52 15 28 1000.7 - 1.2
30/09:00pm 0.2 -7.4 -2.2 84 0.8 W 28 39 15 21 1000.7 1001.0 1.2
30/08:49pm 0.4 -5.2 -2.5 81 1.0 WSW 17 26 9 14 1000.8 - 1.2
30/08:30pm 0.8 -8.9 -2.2 80 1.1 W 39 57 21 31 999.9 - 1.2
30/08:01pm 1.3 -10.2 -2.6 75 1.4 W 48 72 26 39 999.6 - 1.2
30/08:00pm 1.3 -9.4 -3.0 73 1.5 W 44 59 24 32 999.6 - 1.2
30/07:30pm 1.2 -7.0 -4.4 66 1.9 SW 30 48 16 26 999.0 - 1.2
30/07:00pm 1.3 -6.6 -4.5 65 2.0 W 28 56 15 30 998.5 - 1.2
30/06:30pm 1.3 -7.3 -4.1 67 1.8 WSW 32 61 17 33 997.6 - 1.2
30/06:00pm 1.4 -7.7 -3.3 71 1.7 WSW 35 69 19 37 996.9 997.2 1.2
30/05:57pm 1.4 -7.3 -3.3 71 1.7 WSW 33 69 18 37 996.9 - 1.2
30/05:56pm 1.4 -6.7 -3.1 72 1.6 W 30 48 16 26 996.7 - 1.2
30/05:55pm 1.4 -7.1 -3.1 72 1.6 W 32 48 17 26 996.7 - 1.2
30/05:30pm 1.1 -9.1 -3.2 73 1.5 SW 41 72 22 39 996.1 - 1.2
30/05:26pm 1.4 -7.6 -2.9 73 1.5 SW 35 72 19 39 996.0 - 1.2
30/05:18pm 1.5 -6.9 -2.8 73 1.5 SW 32 50 17 27 995.8 - 1.2
30/05:16pm 1.5 -7.9 -2.8 73 1.5 W 37 65 20 35 995.5 - 1.2
30/05:00pm 1.6 -7.0 -2.7 73 1.5 SW 33 54 18 29 995.4 - 1.2
30/04:30pm 1.7 -8.8 -2.6 73 1.5 SW 43 74 23 40 994.0 - 1.2
30/04:00pm 1.8 -9.2 -2.3 74 1.4 WSW 46 74 25 40 992.4 - 1.2
30/03:59pm 1.7 -9.3 -2.2 75 1.3 WSW 46 74 25 40 992.4 - 1.2
30/03:30pm 2.0 -10.0 -1.1 80 1.1 WSW 52 87 28 47 990.4 - 1.2
30/03:26pm 1.9 -9.7 -1.0 81 1.0 SW 50 85 27 46 990.2 - 1.2
30/03:00pm 2.5 -9.1 -0.8 79 1.2 SW 50 87 27 47 988.2 988.5 1.2
30/02:55pm 2.5 -9.5 -0.8 79 1.2 SW 52 87 28 47 987.9 - 1.2
30/02:30pm 2.7 -9.6 -0.6 79 1.2 WSW 54 96 29 52 985.9 - 1.2
30/02:27pm 2.7 -9.6 -0.4 80 1.1 WSW 54 96 29 52 985.7 - 1.2
30/02:00pm 3.0 -9.7 -0.6 77 1.3 WSW 56 89 30 48 983.7 - 1.2
30/01:34pm 3.2 -8.3 -0.3 78 1.3 WSW 50 100 27 54 981.8 - 1.2
30/01:30pm 3.2 -7.9 -0.1 79 1.2 WSW 48 82 26 44 981.7 - 1.2
30/01:08pm 3.6 -7.0 1.0 83 1.0 WSW 46 78 25 42 980.3 - 1.2
30/01:00pm 3.8 -10.7 1.5 85 0.9 W 67 91 36 49 979.5 - 1.2
30/12:34pm 3.8 -11.1 1.5 85 0.9 W 69 87 37 47 978.5 - 1.0
30/12:30pm 3.8 -11.3 1.5 85 0.9 W 70 87 38 47 978.2 - 1.0
30/12:01pm 3.7 -12.5 1.3 84 0.9 W 76 96 41 52 977.1 - 0.8
30/12:00pm 3.7 -12.5 1.3 84 0.9 W 76 89 41 48 977.1 977.4 0.8
30/11:31am 3.6 -13.0 1.2 84 0.9 W 78 96 42 52 976.4 - 0.8
30/11:30am 3.5 -13.5 1.1 84 0.9 W 80 96 43 52 976.4 - 0.8
30/11:00am 3.4 -13.9 1.4 87 0.8 W 82 100 44 54 975.2 - 0.8
30/10:30am 3.2 -14.7 1.6 89 0.6 W 85 106 46 57 974.1 - 0.8
30/10:00am 3.2 -14.1 1.6 89 0.6 W 82 100 44 54 972.8 - 0.6
30/09:30am 3.3 -12.8 1.8 90 0.6 W 76 102 41 55 971.6 - 0.6
30/09:00am 2.9 -15.4 1.3 89 0.6 W 87 109 47 59 970.3 970.6 9.4
30/08:30am 2.8 -13.8 1.2 89 0.6 W 78 102 42 55 969.4 - 8.8
30/08:00am 3.1 -12.3 1.5 89 0.6 W 72 104 39 56 968.3 - 8.2
30/07:47am 3.1 -11.4 1.5 89 0.6 WNW 67 93 36 50 968.0 - 8.0
30/07:46am 3.2 -10.1 1.7 90 0.6 WNW 61 76 33 41 968.1 - 8.0
30/07:30am 3.0 -14.5 1.4 89 0.6 WNW 83 104 45 56 967.2 - 7.8
30/07:00am 2.9 -14.7 1.1 88 0.7 WNW 83 104 45 56 967.3 - 7.6
30/06:30am 3.0 -14.4 0.9 86 0.8 WNW 82 102 44 55 967.5 - 7.2
30/06:00am 2.9 -16.7 0.6 85 0.9 WNW 93 113 50 61 968.0 968.3 7.2
30/05:46am 2.8 -15.6 0.5 85 0.9 WNW 87 115 47 62 968.1 - 7.2
30/05:42am 2.8 -19.9 -0.1 81 1.1 WNW 109 135 59 73 967.8 - 7.0
30/05:30am 3.3 -15.8 0.9 84 0.9 WNW 91 113 49 61 968.2 - 7.0
30/05:00am 3.0 -16.2 0.7 85 0.9 WNW 91 113 49 61 968.9 - 7.0
30/04:40am 3.2 -16.7 0.8 84 0.9 WNW 95 117 51 63 968.9 - 7.0
30/04:39am 3.2 -11.9 0.9 85 0.9 WNW 70 107 38 58 969.2 - 7.0
30/04:32am 2.9 -12.1 0.5 84 0.9 WNW 69 89 37 48 969.7 - 7.0
30/04:30am 2.8 -16.9 0.0 82 1.0 WNW 93 111 50 60 969.4 - 7.0
30/04:00am 3.7 -13.9 -0.1 76 1.4 WNW 82 100 44 54 970.2 - 6.8
30/03:51am 3.4 -13.0 0.1 79 1.2 WNW 76 95 41 51 971.0 - 6.8
30/03:48am 3.3 -13.2 -0.2 78 1.3 WNW 76 93 41 50 970.9 - 6.8
30/03:34am 3.3 -17.4 -0.9 74 1.5 WNW 98 117 53 63 970.5 - 6.8
30/03:30am 4.1 -12.8 -0.5 72 1.7 WNW 78 96 42 52 971.3 - 6.8
30/03:00am 4.1 -13.2 -0.5 72 1.8 WNW 80 104 43 56 972.2 972.5 6.8
30/02:43am 4.2 -11.8 0.2 75 1.5 WNW 74 93 40 50 972.6 - 6.8
30/02:30am 4.1 -12.7 0.3 76 1.4 WNW 78 91 42 49 973.1 - 6.8
30/02:27am 4.1 -13.1 0.1 75 1.5 WNW 80 91 43 49 973.0 - 6.8
30/02:15am 3.8 -9.6 1.0 82 1.1 WNW 61 82 33 44 973.6 - 6.8
30/02:14am 3.8 -9.2 1.0 82 1.1 WNW 59 72 32 39 973.7 - 6.8
30/02:00am 3.3 -13.8 0.7 83 1.0 WNW 80 102 43 55 974.0 - 6.8
30/01:30am 3.6 -12.3 1.0 83 1.0 WNW 74 93 40 50 974.4 - 6.8
30/01:02am 4.4 -9.4 1.1 79 1.3 WNW 63 82 34 44 974.8 - 6.8
30/01:00am 4.4 -9.8 0.9 78 1.4 WNW 65 82 35 44 974.7 - 6.8
30/12:46am 4.4 -11.1 0.9 78 1.4 WNW 72 91 39 49 974.8 - 6.8
30/12:30am 4.1 -11.0 1.1 81 1.2 WNW 70 87 38 47 974.9 - 6.8
30/12:10am 4.7 -8.2 1.7 81 1.2 WNW 59 80 32 43 975.3 - 6.6
30/12:00am 4.8 -7.6 1.5 79 1.3 WNW 56 70 30 38 975.3 975.6 6.6
 
Date/Time
EST
Temp
°C
App
Temp
°C
Dew
Point
Rel
Hum
%
Delta-T
°C
Wind Press
QNH
hPa
Press
MSL
hPa
Rain
since 9 am
mm
Dir
 
Spd
km/h
Gust
km/h
Spd
kts
Gust
kts
29/11:57pm 4.8 -7.8 1.6 80 1.3 WNW 57 76 31 41 975.2 - 6.6
29/11:30pm 4.7 -8.9 2.4 85 0.9 WNW 63 78 34 42 975.3 - 6.6
29/11:00pm 5.6 -9.0 3.1 84 1.0 WNW 69 91 37 49 974.7 - 6.4
29/10:56pm 5.6 -8.2 3.3 85 1.0 WNW 65 83 35 45 974.9 - 6.4

Other Formats:

Comma delimited format used in spreadsheet applications
http://www.bom.gov.au/fwo/IDT60801/IDT60801.94998.axf

JavaScript Object Notation format (JSON) in row-major order
http://www.bom.gov.au/fwo/IDT60801/IDT60801.94998.json